Time;durP1;ratioP1;P1;durP2;ratioP2;P2;SDS_P1;SDS_P2;PMS_P1;PMS_P2;Temp;Humidity;BMP_temperature;BMP_pressure;BME280_temperature;BME280_humidity;BME280_pressure;Samples;Min_cycle;Max_cycle;Signal;HPM_P1;HPM_P2
2022/04/18 00:01:58;;;;;;;19.75;7.53;;;;;;;4.95;37.84;99615.38;4923533;29;20118;-70
2022/04/18 00:04:24;;;;;;;22.70;7.65;;;;;;;4.92;38.34;99624.81;4915493;29;20055;-68
2022/04/18 00:06:51;;;;;;;20.13;6.68;;;;;;;4.87;38.57;99623.88;4933156;29;20065;-70
2022/04/18 00:09:17;;;;;;;16.47;6.17;;;;;;;4.76;38.66;99609.31;4933484;29;20055;-69
2022/04/18 00:11:43;;;;;;;18.52;6.90;;;;;;;4.75;38.54;99616.63;4936562;29;20060;-70
2022/04/18 00:14:10;;;;;;;14.25;4.90;;;;;;;4.73;38.44;99612.53;4932902;29;20055;-70
2022/04/18 00:16:36;;;;;;;12.55;3.40;;;;;;;4.72;38.60;99613.59;4932231;29;20119;-70
2022/04/18 00:19:03;;;;;;;11.77;3.05;;;;;;;4.82;38.36;99613.78;4932156;29;20075;-70
2022/04/18 00:21:31;;;;;;;11.98;2.85;;;;;;;4.79;38.39;99619.69;4943170;29;20114;-70
2022/04/18 00:23:58;;;;;;;9.07;3.22;;;;;;;4.66;38.30;99608.06;4940881;29;20047;-70
2022/04/18 00:26:24;;;;;;;9.20;2.65;;;;;;;4.72;38.52;99613.59;4930041;29;20512;-70
2022/04/18 00:28:50;;;;;;;9.05;3.00;;;;;;;4.74;38.37;99614.97;4918367;29;20087;-70
2022/04/18 00:31:16;;;;;;;10.60;2.78;;;;;;;4.72;38.29;99608.16;4932228;29;20444;-70
2022/04/18 00:33:42;;;;;;;11.32;2.95;;;;;;;4.73;38.51;99616.03;4915978;29;20115;-70
2022/04/18 00:36:08;;;;;;;18.02;3.58;;;;;;;4.71;38.32;99612.75;4930376;29;20115;-70
2022/04/18 00:38:35;;;;;;;13.25;2.70;;;;;;;4.66;38.44;99615.38;4936457;29;20058;-70
2022/04/18 00:41:02;;;;;;;6.72;2.53;;;;;;;4.67;38.34;99617.00;4933497;29;20078;-70
2022/04/18 00:43:39;;;;;;;9.40;2.75;;;;;;;4.66;38.28;99607.25;4915822;29;20087;-70
2022/04/18 00:46:06;;;;;;;8.07;2.60;;;;;;;4.59;38.54;99611.97;4905954;29;20060;-69
2022/04/18 00:48:32;;;;;;;10.25;2.92;;;;;;;4.58;38.72;99607.59;4935512;29;20052;-70
2022/04/18 00:50:59;;;;;;;9.65;2.80;;;;;;;4.58;38.81;99610.31;4916313;29;20499;-70
2022/04/18 00:53:25;;;;;;;10.07;2.45;;;;;;;4.50;38.94;99604.22;4933026;29;20079;-70
2022/04/18 00:55:52;;;;;;;8.60;2.50;;;;;;;4.49;39.00;99615.28;4915891;29;20064;-70
2022/04/18 00:58:19;;;;;;;10.20;2.92;;;;;;;4.47;39.06;99614.69;4914732;29;20520;-70
2022/04/18 01:00:45;;;;;;;14.80;3.15;;;;;;;4.47;39.01;99604.72;4916871;29;20143;-70
2022/04/18 01:03:11;;;;;;;7.85;2.90;;;;;;;4.39;39.01;99611.31;4915779;29;20172;-70
2022/04/18 01:05:38;;;;;;;8.23;2.35;;;;;;;4.34;39.28;99605.78;4934845;29;20047;-70
2022/04/18 01:08:06;;;;;;;7.75;2.42;;;;;;;4.28;39.45;99604.03;4915423;29;20063;-70
2022/04/18 01:10:32;;;;;;;7.85;3.05;;;;;;;4.30;39.58;99610.03;4932675;29;20055;-70
2022/04/18 01:12:58;;;;;;;13.05;2.80;;;;;;;4.30;39.52;99609.22;4910245;29;20115;-70
2022/04/18 01:15:52;;;;;;;11.18;2.83;;;;;;;4.26;39.79;99598.03;4928493;29;20401;-70
2022/04/18 01:18:51;;;;;;;10.10;2.75;;;;;;;4.24;39.63;99592.84;4913424;29;20058;-69
2022/04/18 01:21:48;;;;;;;11.48;3.42;;;;;;;4.18;39.82;99585.69;4934930;29;20118;-70
2022/04/18 01:30:22;;;;;;;12.35;2.92;;;;;;;4.08;40.05;99589.00;4919120;29;20056;-70
2022/04/18 01:32:50;;;;;;;10.15;2.95;;;;;;;4.02;40.11;99573.69;4935409;29;20516;-70
2022/04/18 01:35:16;;;;;;;15.27;3.55;;;;;;;4.00;40.15;99581.22;4931716;29;20142;-69
2022/04/18 01:37:43;;;;;;;9.82;2.85;;;;;;;4.00;40.25;99583.13;4918048;29;20074;-70
2022/04/18 01:40:13;;;;;;;10.50;2.53;;;;;;;3.99;40.36;99579.59;4933491;29;20064;-69
2022/04/18 01:42:39;;;;;;;11.07;3.00;;;;;;;3.96;40.52;99583.56;4926366;29;20079;-70
2022/04/18 01:45:07;;;;;;;10.15;3.03;;;;;;;3.95;40.61;99586.53;4933471;29;20109;-68
2022/04/18 01:47:34;;;;;;;8.93;3.03;;;;;;;3.94;40.59;99591.13;4933936;29;20055;-71
2022/04/18 01:50:00;;;;;;;10.63;2.92;;;;;;;3.90;40.77;99583.69;4918599;29;20060;-71
2022/04/18 01:52:28;;;;;;;11.40;3.20;;;;;;;3.94;40.95;99593.81;4938228;29;20111;-71
2022/04/18 01:54:56;;;;;;;11.55;3.08;;;;;;;3.95;40.81;99597.34;4933086;29;20138;-71
2022/04/18 01:57:22;;;;;;;14.93;3.28;;;;;;;3.91;40.72;99609.72;4933376;29;20070;-71
2022/04/18 01:59:49;;;;;;;10.32;3.25;;;;;;;3.97;40.77;99600.66;4918560;29;20142;-71
2022/04/18 02:02:16;;;;;;;12.45;4.05;;;;;;;3.92;40.64;99590.53;4920783;29;20075;-71
2022/04/18 02:04:43;;;;;;;13.85;3.42;;;;;;;3.92;40.78;99598.66;4918262;29;20052;-71
2022/04/18 02:07:11;;;;;;;10.60;3.65;;;;;;;3.96;40.77;99599.00;4929761;29;20102;-71
2022/04/18 02:09:41;;;;;;;13.43;2.90;;;;;;;3.99;40.56;99598.53;4923975;29;20110;-71
2022/04/18 02:12:10;;;;;;;18.95;3.72;;;;;;;3.98;40.88;99586.06;4917859;29;20048;-71
2022/04/18 02:14:48;;;;;;;11.82;3.33;;;;;;;3.94;41.01;99590.31;4931770;29;20055;-70
2022/04/18 02:17:14;;;;;;;12.20;3.50;;;;;;;3.96;40.89;99589.00;4916452;29;20116;-71
2022/04/18 02:19:42;;;;;;;11.27;2.93;;;;;;;3.94;41.23;99591.13;4922873;29;20050;-71
2022/04/18 02:22:09;;;;;;;;;;;;;;;3.93;41.16;99594.06;4930176;29;20634;-70
2022/04/18 02:24:35;;;;;;;13.15;3.28;;;;;;;3.87;41.17;99597.69;4917300;29;20021;-71
2022/04/18 02:27:01;;;;;;;14.73;3.47;;;;;;;3.86;41.33;99596.06;4917961;29;20048;-71
2022/04/18 02:29:29;;;;;;;12.63;3.25;;;;;;;3.89;41.18;99598.28;4933071;29;20428;-71
2022/04/18 02:34:40;;;;;;;9.50;3.40;;;;;;;3.90;41.40;99591.81;4932591;29;20831;-70
2022/04/18 02:37:07;;;;;;;14.25;3.20;;;;;;;3.83;41.54;99594.66;4935615;29;20540;-70
2022/04/18 02:39:35;;;;;;;10.18;3.33;;;;;;;3.86;41.63;99599.59;4933316;29;20108;-71
2022/04/18 02:42:01;;;;;;;15.70;3.70;;;;;;;3.90;41.58;99597.22;4932391;29;20064;-71
2022/04/18 02:44:32;;;;;;;16.35;3.63;;;;;;;3.91;41.66;99591.59;4917682;29;20062;-71
2022/04/18 02:46:58;;;;;;;24.13;4.13;;;;;;;3.97;41.59;99600.66;4916447;29;20506;-71
2022/04/18 02:49:25;;;;;;;18.98;3.72;;;;;;;3.92;41.70;99593.22;4923401;29;20083;-70
2022/04/18 02:51:51;;;;;;;15.50;3.35;;;;;;;3.93;41.81;99600.28;4925954;29;20562;-70
2022/04/18 02:54:19;;;;;;;15.85;3.83;;;;;;;3.97;41.54;99603.34;4914634;29;20064;-71
2022/04/18 02:56:45;;;;;;;16.65;3.85;;;;;;;3.94;41.62;99601.94;4933253;29;20094;-70
2022/04/18 02:59:11;;;;;;;15.48;3.47;;;;;;;3.94;41.54;99599.22;4917513;29;20060;-70
2022/04/18 03:01:39;;;;;;;13.33;3.57;;;;;;;3.94;41.62;99599.22;4915968;29;20060;-70
2022/04/18 03:04:05;;;;;;;12.98;2.90;;;;;;;3.98;41.58;99596.88;4932859;29;20142;-71
2022/04/18 03:06:31;;;;;;;14.25;3.40;;;;;;;3.95;41.50;99590.06;4886115;29;20154;-70
2022/04/18 03:08:58;;;;;;;14.32;3.28;;;;;;;4.07;41.33;99598.19;4904504;29;20056;-71
2022/04/18 03:11:24;;;;;;;13.30;3.15;;;;;;;3.99;41.37;99593.13;4915895;29;20150;-71
2022/04/18 03:13:50;;;;;;;12.98;3.10;;;;;;;4.06;41.38;99595.69;4926052;29;20082;-70
2022/04/18 03:16:31;;;;;;;19.92;3.38;;;;;;;4.02;41.25;99589.94;4930047;29;20083;-72
2022/04/18 03:18:59;;;;;;;16.83;3.15;;;;;;;4.05;41.26;99586.75;4921301;29;20142;-70
2022/04/18 03:21:25;;;;;;;10.43;3.08;;;;;;;4.12;41.25;99586.63;4898323;29;20059;-72
2022/04/18 03:23:55;;;;;;;18.35;3.38;;;;;;;3.99;41.37;99573.38;4927776;29;20070;-72
2022/04/18 03:26:56;;;;;;;14.40;2.88;;;;;;;3.97;41.66;99576.31;4904844;29;20068;-73
2022/04/18 03:29:31;;;;;;;20.83;3.50;;;;;;;4.14;41.46;99599.94;4921931;29;20075;-72
2022/04/18 03:31:58;;;;;;;16.95;3.70;;;;;;;4.10;41.63;99591.44;4920187;29;20086;-72
2022/04/18 03:34:29;;;;;;;14.35;3.35;;;;;;;4.10;41.63;99596.88;4933590;29;20051;-72
2022/04/18 03:39:51;;;;;;;8.98;3.17;;;;;;;4.07;42.22;99587.34;4925372;29;20051;-72
2022/04/18 03:42:31;;;;;;;21.48;4.10;;;;;;;4.16;42.01;99590.53;4938978;28;20421;-73
2022/04/18 03:45:03;;;;;;;20.85;4.28;;;;;;;4.20;41.98;99586.28;4932096;29;20079;-73
2022/04/18 03:47:30;;;;;;;17.10;3.90;;;;;;;4.20;42.05;99586.28;4906733;29;20058;-73
2022/04/18 03:49:57;;;;;;;9.38;3.20;;;;;;;4.22;42.43;99584.16;4917118;29;20059;-74
2022/04/18 03:52:24;;;;;;;17.50;3.40;;;;;;;4.32;42.43;99588.16;4953106;29;20059;-73
2022/04/18 03:54:56;;;;;;;16.98;3.40;;;;;;;4.30;42.54;99579.44;4937872;29;20142;-72
2022/04/18 03:57:29;;;;;;;12.95;3.20;;;;;;;4.40;42.68;99585.06;4928524;29;20056;-73
2022/04/18 04:00:00;;;;;;;16.77;3.70;;;;;;;4.43;42.57;99575.63;4909868;29;20044;-70
2022/04/18 04:02:29;;;;;;;17.67;3.85;;;;;;;4.53;42.71;99587.50;4915460;29;20111;-72
2022/04/18 04:04:55;;;;;;;29.58;3.95;;;;;;;4.52;42.97;99587.72;4932305;29;20064;-72
2022/04/18 04:07:22;;;;;;;18.17;4.15;;;;;;;4.61;43.15;99588.19;4930711;29;20059;-71
2022/04/18 04:10:01;;;;;;;27.42;4.80;;;;;;;4.65;43.12;99581.22;4928764;29;20137;-70
2022/04/18 04:12:27;;;;;;;21.42;4.40;;;;;;;4.74;43.37;99582.47;4927893;29;20520;-70
2022/04/18 04:15:24;;;;;;;23.08;4.93;;;;;;;4.73;43.28;99580.81;4928176;29;20067;-70
2022/04/18 04:17:58;;;;;;;22.58;5.30;;;;;;;4.70;43.27;99572.38;4936357;29;20066;-70
2022/04/18 04:20:25;;;;;;;34.67;6.10;;;;;;;4.88;43.47;99591.16;4933576;29;20559;-70
2022/04/18 04:22:52;;;;;;;24.95;6.53;;;;;;;5.00;43.20;99590.28;4932469;29;20058;-69
2022/04/18 04:25:54;;;;;;;23.23;5.32;;;;;;;5.03;43.26;99584.38;4911939;29;20059;-70
2022/04/18 04:28:27;;;;;;;18.95;6.90;;;;;;;5.08;43.36;99588.00;4920396;29;20075;-70
2022/04/18 04:30:53;;;;;;;17.73;6.78;;;;;;;5.15;43.40;99585.13;4932069;29;20051;-70
2022/04/18 04:33:19;;;;;;;20.70;7.15;;;;;;;5.19;43.40;99578.16;4916487;29;20114;-71
2022/04/18 04:35:49;;;;;;;19.05;5.63;;;;;;;5.18;43.81;99581.94;4936144;29;20143;-70
2022/04/18 04:38:19;;;;;;;24.27;6.20;;;;;;;5.19;44.00;99580.03;4915440;29;20066;-70
2022/04/18 04:40:55;;;;;;;14.75;4.57;;;;;;;5.18;43.91;99581.94;4932200;29;20071;-70
2022/04/18 04:43:42;;;;;;;15.45;4.68;;;;;;;5.16;43.88;99578.66;4932700;29;20047;-70
2022/04/18 04:46:12;;;;;;;20.05;4.38;;;;;;;5.21;43.94;99581.44;4933073;29;20056;-70
2022/04/18 04:48:58;;;;;;;13.60;4.10;;;;;;;5.25;44.15;99579.88;4932080;29;20166;-69
2022/04/18 04:51:24;;;;;;;18.40;4.55;;;;;;;5.39;43.88;99576.84;4917349;29;20275;-68
2022/04/18 04:53:52;;;;;;;10.25;4.10;;;;;;;5.44;43.97;99585.06;4923804;29;20151;-69
2022/04/18 04:56:28;;;;;;;;;;;;;;;5.50;43.92;99584.09;4919021;29;20047;-69
2022/04/18 04:58:57;;;;;;;10.85;3.80;;;;;;;5.51;43.72;99579.47;4931406;29;19931;-68
2022/04/18 05:01:25;;;;;;;14.57;4.63;;;;;;;5.61;43.91;99576.94;4910646;29;20111;-69
2022/04/18 05:04:15;;;;;;;16.42;3.90;;;;;;;5.64;44.04;99578.34;4927333;29;20397;-69
2022/04/18 05:06:41;;;;;;;14.35;4.20;;;;;;;5.60;44.17;99575.28;4930036;29;20429;-70
2022/04/18 05:09:13;;;;;;;14.05;4.72;;;;;;;5.71;44.33;99583.59;4917778;29;20063;-68
2022/04/18 05:11:40;;;;;;;12.73;4.28;;;;;;;5.66;44.32;99581.63;4922060;29;20067;-70
2022/04/18 05:14:11;;;;;;;16.65;4.10;;;;;;;5.74;44.30;99574.97;4917219;29;20115;-70
2022/04/18 05:16:45;;;;;;;11.48;4.00;;;;;;;5.84;44.21;99577.00;4917500;29;20394;-70
2022/04/18 05:19:31;;;;;;;10.63;4.32;;;;;;;5.88;44.28;99573.53;4934905;29;20563;-70
2022/04/18 05:22:23;;;;;;;13.77;4.40;;;;;;;5.89;44.30;99575.19;4937181;29;20085;-70
2022/04/18 05:24:51;;;;;;;16.27;4.25;;;;;;;5.96;44.47;99575.81;4918131;29;20090;-70
2022/04/18 05:27:29;;;;;;;14.90;4.50;;;;;;;6.03;44.47;99580.28;4934028;29;20066;-70
2022/04/18 05:29:55;;;;;;;14.00;4.40;;;;;;;6.02;44.38;99578.66;4938965;29;20515;-70
2022/04/18 05:32:22;;;;;;;11.98;4.30;;;;;;;6.06;44.43;99571.66;4917979;29;20079;-69
2022/04/18 05:34:55;;;;;;;12.38;3.95;;;;;;;6.15;44.29;99569.31;4918077;29;20052;-69
2022/04/18 05:37:26;;;;;;;15.05;4.20;;;;;;;6.21;44.22;99573.72;4918905;29;20070;-69
2022/04/18 05:40:06;;;;;;;13.68;4.60;;;;;;;6.27;44.06;99578.19;4934557;29;20397;-69
2022/04/18 05:42:35;;;;;;;15.75;4.65;;;;;;;6.35;43.95;99575.00;4911474;29;20083;-69
2022/04/18 05:45:08;;;;;;;18.20;4.45;;;;;;;6.41;43.64;99572.38;4902972;29;20397;-69
2022/04/18 05:47:34;;;;;;;17.42;4.95;;;;;;;6.42;43.87;99574.81;4918979;29;20056;-69
2022/04/18 05:50:05;;;;;;;11.40;4.60;;;;;;;6.51;43.57;99567.03;4950302;29;20055;-70
2022/04/18 05:52:33;;;;;;;12.57;3.75;;;;;;;6.53;43.40;99579.31;4917578;29;20060;-69
2022/04/18 05:55:12;;;;;;;13.02;4.00;;;;;;;6.58;43.49;99575.00;4911845;29;20059;-68
2022/04/18 05:57:38;;;;;;;10.77;4.20;;;;;;;6.62;43.22;99576.97;4927955;29;20115;-69
2022/04/18 06:00:06;;;;;;;13.05;3.65;;;;;;;6.66;42.88;99569.13;4926675;29;20063;-68
2022/04/18 06:02:41;;;;;;;14.60;5.07;;;;;;;6.74;43.00;99573.31;4913875;29;20084;-68
2022/04/18 06:05:11;;;;;;;26.95;4.53;;;;;;;6.72;42.99;99573.53;4933030;29;20070;-68
2022/04/18 06:07:48;;;;;;;12.43;3.45;;;;;;;6.77;42.70;99570.06;4914581;29;20406;-71
2022/04/18 06:10:53;;;;;;;16.13;3.53;;;;;;;6.85;42.22;99566.06;4894028;29;20060;-71
2022/04/18 06:13:41;;;;;;;10.75;3.00;;;;;;;6.92;41.76;99574.81;4879739;29;20434;-72
2022/04/18 06:16:07;;;;;;;12.98;2.92;;;;;;;6.97;41.48;99568.63;4902894;29;20195;-72
2022/04/18 06:18:34;;;;;;;15.30;2.83;;;;;;;7.00;41.54;99570.81;4916643;29;20063;-69
2022/04/18 06:21:06;;;;;;;13.20;2.97;;;;;;;6.98;41.49;99564.84;4927082;29;20063;-69
2022/04/18 06:23:33;;;;;;;15.20;3.25;;;;;;;7.05;41.38;99566.28;4933174;29;20117;-69
2022/04/18 06:26:32;;;;;;;16.30;3.22;;;;;;;7.18;41.28;99558.78;4887191;29;20067;-69
2022/04/18 06:29:00;;;;;;;8.70;2.80;;;;;;;7.20;41.20;99556.63;4932717;29;20064;-69
2022/04/18 06:31:26;;;;;;;10.50;3.13;;;;;;;7.20;41.34;99556.63;4933308;29;20059;-69
2022/04/18 06:33:58;;;;;;;8.32;2.70;;;;;;;7.24;41.25;99560.44;4901466;29;20107;-69
2022/04/18 06:36:25;;;;;;;10.25;3.63;;;;;;;7.24;41.19;99558.56;4916268;29;20432;-68
2022/04/18 06:39:13;;;;;;;7.93;3.10;;;;;;;7.34;41.24;99563.28;4930337;29;20115;-69
2022/04/18 06:41:41;;;;;;;21.30;3.40;;;;;;;7.36;41.50;99563.03;4930942;29;20155;-69
2022/04/18 06:44:07;;;;;;;13.70;3.53;;;;;;;7.47;41.35;99558.47;4917337;29;20750;-70
2022/04/18 06:46:47;;;;;;;10.07;3.00;;;;;;;7.60;41.08;99549.03;4932427;29;20423;-69
2022/04/18 06:49:26;;;;;;;13.27;2.88;;;;;;;7.66;40.78;99567.88;4934021;29;20051;-69
2022/04/18 06:52:12;;;;;;;8.88;2.83;;;;;;;7.70;40.68;99557.28;4934023;29;20122;-69
2022/04/18 06:54:59;;;;;;;18.77;2.95;;;;;;;7.75;40.65;99562.75;4933889;29;20421;-68
2022/04/18 06:57:26;;;;;;;18.60;4.15;;;;;;;7.77;40.58;99560.59;4933425;29;20067;-69
2022/04/18 06:59:55;;;;;;;13.27;3.00;;;;;;;7.90;40.34;99566.66;4932719;29;20056;-69
2022/04/18 07:02:23;;;;;;;10.00;2.42;;;;;;;7.93;40.10;99561.53;4932531;29;20074;-69
2022/04/18 07:04:52;;;;;;;9.88;3.13;;;;;;;7.99;39.95;99573.25;4917255;29;20075;-69
2022/04/18 07:07:18;;;;;;;8.40;2.85;;;;;;;7.99;39.88;99558.81;4933540;29;20052;-69
2022/04/18 07:09:44;;;;;;;12.38;3.30;;;;;;;8.00;39.80;99558.56;4910826;29;20608;-68
2022/04/18 07:12:20;;;;;;;8.73;2.75;;;;;;;8.09;39.71;99567.84;4929868;29;20135;-69
2022/04/18 07:14:47;;;;;;;8.63;3.25;;;;;;;8.16;39.76;99567.63;4930361;29;20090;-69
2022/04/18 07:17:13;;;;;;;11.65;2.60;;;;;;;8.30;39.76;99570.72;4919637;29;20048;-69
2022/04/18 07:19:40;;;;;;;7.57;2.60;;;;;;;8.31;39.49;99552.44;4913593;29;20135;-68
2022/04/18 07:22:13;;;;;;;9.25;2.67;;;;;;;8.32;39.28;99543.19;4932645;29;20416;-68
2022/04/18 07:24:39;;;;;;;11.25;2.55;;;;;;;8.48;39.96;99558.50;4913782;29;20097;-69
2022/04/18 07:27:05;;;;;;;9.75;2.42;;;;;;;8.54;39.47;99558.56;4915506;29;20090;-69
2022/04/18 07:29:41;;;;;;;12.27;2.47;;;;;;;8.60;39.17;99552.88;4932983;29;20143;-69
2022/04/18 07:32:08;;;;;;;12.57;2.55;;;;;;;8.64;39.00;99556.69;4922784;29;20067;-69
2022/04/18 07:34:35;;;;;;;8.57;2.53;;;;;;;8.71;38.88;99555.63;4922842;29;20071;-69
2022/04/18 07:37:02;;;;;;;10.48;2.92;;;;;;;8.68;38.88;99561.59;4930782;29;20064;-68
2022/04/18 07:39:29;;;;;;;9.40;2.78;;;;;;;8.77;38.93;99554.56;4916076;29;20059;-67
2022/04/18 07:41:55;;;;;;;8.73;2.47;;;;;;;8.87;38.78;99551.84;4936988;29;20081;-69
2022/04/18 07:44:27;;;;;;;9.05;2.55;;;;;;;8.91;38.22;99550.22;4916828;29;20056;-68
2022/04/18 07:46:55;;;;;;;11.45;2.65;;;;;;;8.96;38.36;99551.31;4927243;29;20067;-69
2022/04/18 07:49:28;;;;;;;7.30;2.10;;;;;;;8.96;38.16;99548.59;4913125;29;20596;-68
2022/04/18 07:51:55;;;;;;;6.53;2.30;;;;;;;9.00;38.24;99536.88;4928673;29;20083;-68
2022/04/18 07:54:31;;;;;;;13.45;2.55;;;;;;;9.09;38.23;99542.63;4928134;29;20059;-74
2022/04/18 07:56:59;;;;;;;12.77;2.53;;;;;;;9.16;38.09;99547.81;4934495;29;20066;-75
2022/04/18 07:59:39;;;;;;;7.00;2.30;;;;;;;9.20;37.88;99543.44;4919695;29;20063;-74
2022/04/18 08:02:08;;;;;;;9.32;2.25;;;;;;;9.27;37.71;99534.97;4932404;29;20436;-71
2022/04/18 08:04:54;;;;;;;9.73;2.40;;;;;;;9.32;37.63;99545.88;4937628;29;20513;-70
2022/04/18 08:07:30;;;;;;;11.00;2.55;;;;;;;9.35;37.30;99542.59;4917821;29;20052;-70
2022/04/18 08:09:57;;;;;;;9.40;2.58;;;;;;;9.42;37.28;99543.16;4921947;29;20067;-71
2022/04/18 08:12:24;;;;;;;11.10;2.97;;;;;;;9.52;37.20;99545.06;4932464;29;20058;-71
2022/04/18 08:15:09;;;;;;;9.95;2.53;;;;;;;9.61;37.30;99543.44;4928978;29;20377;-71
2022/04/18 08:17:36;;;;;;;8.37;2.50;;;;;;;9.59;37.15;99517.50;4937135;29;20058;-68
2022/04/18 08:20:06;;;;;;;11.50;2.38;;;;;;;9.78;36.97;99543.13;4935351;29;20652;-69
2022/04/18 08:22:32;;;;;;;17.75;3.58;;;;;;;9.87;36.75;99535.19;4928896;29;20055;-69
2022/04/18 08:25:25;;;;;;;10.18;3.40;;;;;;;10.00;36.61;99524.78;4913500;29;20544;-70
2022/04/18 08:28:29;;;;;;;26.08;4.05;;;;;;;10.10;36.35;99521.19;4899013;29;20051;-68
2022/04/18 08:30:56;;;;;;;16.87;3.20;;;;;;;10.17;36.15;99527.19;4914345;29;20052;-70
2022/04/18 08:33:39;;;;;;;9.68;2.60;;;;;;;10.20;35.68;99532.09;4915599;29;20106;-70
2022/04/18 08:36:06;;;;;;;7.38;2.45;;;;;;;10.27;35.35;99526.34;4931385;29;20059;-71
2022/04/18 08:38:32;;;;;;;8.02;2.28;;;;;;;10.36;35.39;99514.53;4931720;29;20638;-69
2022/04/18 08:41:21;;;;;;;8.82;2.45;;;;;;;10.45;35.17;99519.44;4932053;29;20119;-70
2022/04/18 08:43:50;;;;;;;10.13;2.25;;;;;;;10.58;34.97;99529.75;4939388;29;20536;-71
2022/04/18 08:46:17;;;;;;;7.72;2.30;;;;;;;10.70;34.70;99515.78;4912247;29;20060;-70
2022/04/18 08:54:14;;;;;;;12.23;2.35;;;;;;;10.92;34.17;99509.88;4933006;29;20054;-70
2022/04/18 08:56:41;;;;;;;17.13;2.90;;;;;;;10.83;33.80;99486.97;4932936;29;20060;-70
2022/04/18 08:59:07;;;;;;;10.95;3.33;;;;;;;11.03;33.64;99509.78;4912605;29;20402;-69
2022/04/18 09:01:33;;;;;;;11.30;3.55;;;;;;;11.15;33.49;99509.44;4936497;29;20430;-68
2022/04/18 09:04:11;;;;;;;15.15;4.70;;;;;;;11.26;33.38;99501.97;4920202;29;20579;-69
2022/04/18 09:06:42;;;;;;;11.38;3.50;;;;;;;11.37;33.22;99500.75;4931303;29;20055;-69
2022/04/18 09:09:14;;;;;;;15.13;3.72;;;;;;;11.45;32.72;99499.31;4932526;29;20070;-70
2022/04/18 09:11:40;;;;;;;14.35;3.85;;;;;;;11.52;32.80;99496.25;4914039;29;20087;-69
2022/04/18 09:14:14;;;;;;;12.73;3.60;;;;;;;11.62;32.58;99491.50;4915197;29;20083;-69
2022/04/18 09:16:42;;;;;;;17.73;2.90;;;;;;;11.73;32.56;99485.91;4929545;29;20360;-68
2022/04/18 09:19:15;;;;;;;7.82;1.98;;;;;;;11.73;31.99;99485.91;4914522;29;20059;-70
2022/04/18 09:21:58;;;;;;;7.55;2.10;;;;;;;11.80;31.99;99491.03;4916507;29;20062;-69
2022/04/18 09:24:33;;;;;;;11.90;2.70;;;;;;;11.91;32.10;99474.19;4929387;29;20115;-69
2022/04/18 09:27:29;;;;;;;10.15;3.00;;;;;;;12.01;31.88;99470.56;4926087;29;20144;-70
2022/04/18 09:30:11;;;;;;;9.88;2.85;;;;;;;12.15;31.96;99465.19;4930954;29;20071;-69
2022/04/18 09:32:56;;;;;;;9.35;2.78;;;;;;;12.32;31.98;99481.13;4915930;29;20071;-71
2022/04/18 09:35:30;;;;;;;13.45;3.03;;;;;;;12.44;32.15;99475.22;4912906;29;20597;-70
2022/04/18 09:38:01;;;;;;;8.25;2.75;;;;;;;12.49;31.65;99471.63;4901126;29;20488;-71
2022/04/18 09:40:47;;;;;;;8.25;2.47;;;;;;;12.54;31.67;99463.31;4933238;29;20143;-71
2022/04/18 09:43:14;;;;;;;10.50;2.80;;;;;;;12.62;31.54;99462.63;4933860;29;20162;-72
2022/04/18 09:45:40;;;;;;;9.43;2.60;;;;;;;12.67;31.57;99469.97;4916481;29;20051;-71
2022/04/18 09:48:15;;;;;;;11.53;2.47;;;;;;;12.71;31.27;99457.28;4931935;29;20052;-70
2022/04/18 09:51:00;;;;;;;11.43;2.85;;;;;;;12.83;31.18;99470.56;4917442;29;20316;-71
2022/04/18 09:53:37;;;;;;;12.57;3.92;;;;;;;12.99;31.01;99468.38;4930677;29;20056;-71
2022/04/18 09:56:03;;;;;;;9.38;3.25;;;;;;;13.08;30.77;99468.50;4931113;29;20110;-72
2022/04/18 09:58:31;;;;;;;15.45;3.85;;;;;;;13.13;30.62;99468.44;4929968;29;20063;-72
2022/04/18 10:01:02;;;;;;;14.65;3.20;;;;;;;13.16;30.24;99473.31;4932080;29;20056;-72
2022/04/18 10:03:28;;;;;;;12.45;3.10;;;;;;;13.21;30.05;99452.38;4933361;29;20051;-72
2022/04/18 10:05:55;;;;;;;14.55;2.72;;;;;;;13.25;29.76;99456.97;4935193;29;20078;-72
2022/04/18 10:08:21;;;;;;;25.88;3.88;;;;;;;13.36;29.71;99454.88;4931879;29;20119;-71
2022/04/18 10:10:48;;;;;;;19.92;3.45;;;;;;;13.51;29.95;99451.06;4933807;29;20602;-73
2022/04/18 10:13:15;;;;;;;14.88;3.08;;;;;;;13.63;29.82;99458.81;4935475;29;20405;-72
2022/04/18 10:15:42;;;;;;;9.85;2.72;;;;;;;13.72;29.53;99434.19;4938766;29;20043;-71
2022/04/18 10:18:10;;;;;;;8.95;2.70;;;;;;;13.75;29.02;99437.16;4932854;29;20575;-73
2022/04/18 10:21:02;;;;;;;12.90;3.10;;;;;;;13.80;28.63;99438.16;4917623;29;20298;-72
2022/04/18 10:23:53;;;;;;;12.65;2.70;;;;;;;13.83;28.36;99454.03;4933948;29;20090;-71
2022/04/18 10:26:45;;;;;;;8.38;2.70;;;;;;;13.92;28.44;99449.47;4921843;29;20108;-72
2022/04/18 10:29:18;;;;;;;12.45;2.50;;;;;;;13.96;27.89;99450.47;4929995;29;20079;-72
2022/04/18 10:31:45;;;;;;;9.10;2.28;;;;;;;14.10;27.96;99444.16;4916234;29;20067;-72
2022/04/18 10:34:12;;;;;;;;;;;;;;;14.16;27.72;99448.41;4909764;29;20566;-71
2022/04/18 10:36:45;;;;;;;11.55;2.30;;;;;;;14.14;27.88;99445.16;4916079;29;19937;-73
2022/04/18 10:39:12;;;;;;;22.00;2.38;;;;;;;14.25;27.90;99448.50;4935134;29;20048;-70
2022/04/18 10:41:39;;;;;;;9.80;2.60;;;;;;;14.28;27.59;99443.22;4934712;29;20059;-68
2022/04/18 10:44:08;;;;;;;;;;;;;;;14.30;27.53;99438.22;4933890;29;20588;-68
2022/04/18 10:46:35;;;;;;;12.52;3.60;;;;;;;14.33;27.64;99442.28;4921508;29;20033;-69
2022/04/18 10:49:04;;;;;;;;;;;;;;;14.40;27.61;99445.41;4930066;29;20063;-69
2022/04/18 10:51:33;;;;;;;10.07;3.15;;;;;;;14.47;27.27;99431.25;4934649;29;19926;-69
2022/04/18 10:54:09;;;;;;;12.38;2.75;;;;;;;14.54;27.13;99422.56;4932385;29;20142;-69
2022/04/18 10:56:50;;;;;;;15.75;2.88;;;;;;;14.74;27.11;99426.81;4934066;29;20535;-69
2022/04/18 10:59:17;;;;;;;8.98;2.75;;;;;;;14.86;27.08;99427.06;4933353;29;20136;-70
2022/04/18 11:01:43;;;;;;;12.98;2.90;;;;;;;14.94;26.79;99419.16;4933785;29;20056;-70
2022/04/18 11:04:11;;;;;;;11.32;2.75;;;;;;;15.03;26.68;99422.81;4933801;29;20058;-75
2022/04/18 11:06:54;;;;;;;10.43;2.78;;;;;;;15.12;26.75;99420.91;4915175;29;20520;-71
2022/04/18 11:09:21;;;;;;;13.52;3.30;;;;;;;15.25;26.69;99412.88;4940346;29;20089;-71
2022/04/18 11:11:52;;;;;;;9.98;2.75;;;;;;;15.41;26.56;99418.81;4908497;29;20047;-71
2022/04/18 11:14:20;;;;;;;11.45;2.67;;;;;;;15.57;26.42;99417.25;4937847;29;20063;-71
2022/04/18 11:16:51;;;;;;;10.15;2.53;;;;;;;15.62;26.10;99405.28;4934185;29;20052;-70
2022/04/18 11:19:20;;;;;;;7.00;2.15;;;;;;;15.76;25.90;99410.69;4923962;29;20428;-71
2022/04/18 11:22:07;;;;;;;6.35;2.25;;;;;;;15.81;25.05;99416.03;4915818;29;20075;-72
2022/04/18 11:24:35;;;;;;;13.15;2.78;;;;;;;15.86;25.18;99409.56;4933040;29;20055;-72
2022/04/18 11:27:03;;;;;;;6.95;2.28;;;;;;;15.82;24.89;99403.09;4936397;29;20059;-72
2022/04/18 11:29:31;;;;;;;8.50;2.10;;;;;;;16.04;24.96;99401.38;4932784;29;20055;-71
2022/04/18 11:31:56;;;;;;;;;;;;;;;16.22;25.08;99407.72;4932069;29;20062;-72
2022/04/18 11:34:26;;;;;;;13.48;2.63;;;;;;;16.41;25.04;99412.97;4934081;29;20322;-71
2022/04/18 11:36:55;;;;;;;8.30;2.72;;;;;;;16.62;24.33;99407.56;4934182;29;20107;-70
2022/04/18 11:39:21;;;;;;;10.32;2.60;;;;;;;16.93;24.29;99400.25;4932516;29;20052;-72
2022/04/18 11:41:47;;;;;;;21.15;3.03;;;;;;;17.26;24.11;99405.25;4915253;29;20115;-78
2022/04/18 11:44:19;;;;;;;9.57;2.83;;;;;;;17.58;24.13;99403.84;4900085;29;20052;-76
2022/04/18 11:46:47;;;;;;;10.25;3.20;;;;;;;17.93;23.94;99404.81;4931583;29;20520;-75
2022/04/18 11:49:13;;;;;;;11.10;3.70;;;;;;;18.30;23.65;99393.22;4930809;29;20370;-74
2022/04/18 11:51:40;;;;;;;16.42;3.95;;;;;;;18.52;24.37;99389.28;4932077;29;20060;-74
2022/04/18 11:54:08;;;;;;;16.15;4.60;;;;;;;18.71;23.71;99386.84;4916698;29;20055;-75
2022/04/18 11:56:34;;;;;;;15.32;4.45;;;;;;;18.92;23.92;99394.28;4931258;29;20055;-75
2022/04/18 11:59:03;;;;;;;16.80;3.90;;;;;;;19.02;24.10;99384.75;4933421;29;20377;-75
2022/04/18 12:07:00;;;;;;;15.60;4.22;;;;;;;19.35;23.68;99380.34;4923468;29;20071;-75
2022/04/18 12:09:27;;;;;;;22.95;4.03;;;;;;;19.39;23.60;99373.78;4925207;29;20118;-75
2022/04/18 12:11:54;;;;;;;9.18;3.63;;;;;;;19.66;22.65;99373.44;4933730;29;20091;-75
2022/04/18 12:14:20;;;;;;;11.13;3.58;;;;;;;19.83;22.40;99367.66;4932465;29;20106;-75
2022/04/18 12:16:47;;;;;;;11.10;3.33;;;;;;;20.03;22.63;99364.31;4916711;29;20060;-74